YVZ YSCB-YMER

Flight info

Callsign YVZ
Flight time 0h 28m
Altitude 8500
Route YSCB COOMA AREA YMBER
Aircraft B36T/L-V/N

Departure

Time 2026-04-25 08:44
Airport Canberra Airport (YSCB)

Arrival

Time 2026-04-25 09:13
Airport Merimbula Airport (YMER)
Time Latitude Longitude Altitude Speed Heading
2026-04-25 08:19 -35.30289 149.18569 1874 ft 0 kts 128°
2026-04-25 08:23 -35.30291 149.18583 1874 ft 0 kts 69°
2026-04-25 08:23 -35.30320 149.18625 1874 ft 12 kts 141°
2026-04-25 08:23 -35.30339 149.18648 1874 ft 6 kts 122°
2026-04-25 08:24 -35.30322 149.18686 1874 ft 8 kts 40°
2026-04-25 08:24 -35.30340 149.18741 1874 ft 10 kts 129°
2026-04-25 08:24 -35.30405 149.18838 1874 ft 10 kts 132°
2026-04-25 08:24 -35.30460 149.18917 1874 ft 17 kts 125°
2026-04-25 08:25 -35.30501 149.18965 1874 ft 3 kts 140°
2026-04-25 08:25 -35.30547 149.19019 1874 ft 6 kts 124°
2026-04-25 08:25 -35.30568 149.19061 1874 ft 19 kts 121°
2026-04-25 08:25 -35.30616 149.19131 1874 ft 12 kts 133°
2026-04-25 08:26 -35.30649 149.19185 1874 ft 2 kts 131°
2026-04-25 08:26 -35.30653 149.19190 1874 ft 4 kts 134°
2026-04-25 08:26 -35.30658 149.19197 1874 ft 0 kts 138°
2026-04-25 08:27 -35.30659 149.19197 1874 ft 0 kts 138°
2026-04-25 08:28 -35.30692 149.19230 1874 ft 4 kts 153°
2026-04-25 08:28 -35.30739 149.19241 1874 ft 0 kts 182°
2026-04-25 08:29 -35.30816 149.19241 1874 ft 10 kts 183°
2026-04-25 08:29 -35.30854 149.19240 1874 ft 3 kts 180°
2026-04-25 08:29 -35.30890 149.19239 1874 ft 5 kts 181°
2026-04-25 08:29 -35.30945 149.19244 1874 ft 4 kts 155°
2026-04-25 08:30 -35.30969 149.19288 1874 ft 0 kts 101°
2026-04-25 08:30 -35.30973 149.19314 1874 ft 7 kts 101°
2026-04-25 08:30 -35.30974 149.19319 1874 ft 0 kts 91°
2026-04-25 08:42 -35.30968 149.19394 1874 ft 9 kts 84°
2026-04-25 08:43 -35.30937 149.19442 1874 ft 14 kts 16°
2026-04-25 08:43 -35.30908 149.19444 1874 ft 0 kts 357°
2026-04-25 08:43 -35.30663 149.19444 1874 ft 86 kts
2026-04-25 08:44 -35.29957 149.19425 2160 ft 133 kts 358°
2026-04-25 08:44 -35.28942 149.19536 2749 ft 158 kts 23°
2026-04-25 08:44 -35.28160 149.20332 3327 ft 156 kts 56°
2026-04-25 08:44 -35.27629 149.21508 4008 ft 161 kts 61°
2026-04-25 08:45 -35.27098 149.22807 4334 ft 179 kts 62°
2026-04-25 08:45 -35.26574 149.24158 4580 ft 187 kts 63°
2026-04-25 08:45 -35.26049 149.25587 4767 ft 168 kts 65°
2026-04-25 08:45 -35.25646 149.26815 4781 ft 148 kts 67°
2026-04-25 08:46 -35.25331 149.27956 4813 ft 139 kts 72°
2026-04-25 08:46 -35.25120 149.29098 4890 ft 136 kts 81°
2026-04-25 08:46 -35.25139 149.30321 5053 ft 162 kts 98°
2026-04-25 08:46 -35.25457 149.31740 5540 ft 185 kts 109°
2026-04-25 08:47 -35.26261 149.33032 5530 ft 183 kts 148°
2026-04-25 08:47 -35.27320 149.33223 5485 ft 146 kts 199°
2026-04-25 08:47 -35.28129 149.32602 5494 ft 133 kts 213°
2026-04-25 08:47 -35.28905 149.32024 5495 ft 135 kts 212°
2026-04-25 08:48 -35.29833 149.31328 5517 ft 173 kts 213°
2026-04-25 08:48 -35.30907 149.30507 5516 ft 188 kts 212°
2026-04-25 08:48 -35.32021 149.29651 5515 ft 193 kts 213°
2026-04-25 08:48 -35.33142 149.28784 5498 ft 177 kts 213°
2026-04-25 08:49 -35.34089 149.28212 5128 ft 137 kts 189°
2026-04-25 08:49 -35.35007 149.28168 4820 ft 132 kts 195°
2026-04-25 08:49 -35.35946 149.28020 4722 ft 141 kts 164°
2026-04-25 08:49 -35.36741 149.28686 4727 ft 139 kts 155°
2026-04-25 08:50 -35.37687 149.28717 4711 ft 138 kts 188°
2026-04-25 08:50 -35.38618 149.28368 4747 ft 142 kts 196°
2026-04-25 08:50 -35.39622 149.27996 5229 ft 155 kts 198°
2026-04-25 08:50 -35.40654 149.27550 5889 ft 153 kts 203°
2026-04-25 08:51 -35.41627 149.27042 6720 ft 153 kts 205°
2026-04-25 08:51 -35.42573 149.26435 7096 ft 157 kts 210°
2026-04-25 08:51 -35.43509 149.25685 7181 ft 168 kts 215°
2026-04-25 08:51 -35.44558 149.24963 7051 ft 178 kts 198°
2026-04-25 08:52 -35.45835 149.25021 6934 ft 204 kts 158°
2026-04-25 08:52 -35.46965 149.25962 6823 ft 189 kts 139°
2026-04-25 08:52 -35.47997 149.26906 6698 ft 183 kts 149°
2026-04-25 08:52 -35.49161 149.27516 6603 ft 179 kts 160°
2026-04-25 08:53 -35.50323 149.27991 6704 ft 170 kts 160°
2026-04-25 08:53 -35.51385 149.28450 6929 ft 162 kts 159°
2026-04-25 08:53 -35.52444 149.28912 7160 ft 161 kts 159°
2026-04-25 08:53 -35.53501 149.29369 7392 ft 163 kts 160°
2026-04-25 08:54 -35.54638 149.29870 7463 ft 183 kts 160°
2026-04-25 08:54 -35.55872 149.30397 7474 ft 191 kts 160°
2026-04-25 08:54 -35.57143 149.30949 7473 ft 195 kts 160°
2026-04-25 08:54 -35.58425 149.31509 7470 ft 196 kts 160°
2026-04-25 08:55 -35.59711 149.32069 7471 ft 196 kts 160°
2026-04-25 08:55 -35.60895 149.32589 7408 ft 193 kts 160°
2026-04-25 08:55 -35.62157 149.33140 7446 ft 192 kts 160°
2026-04-25 08:55 -35.63427 149.33687 7447 ft 194 kts 160°
2026-04-25 08:56 -35.64703 149.34242 7449 ft 194 kts 160°
2026-04-25 08:56 -35.65961 149.34790 7449 ft 194 kts 160°
2026-04-25 08:56 -35.67238 149.35347 7448 ft 194 kts 160°
2026-04-25 08:56 -35.68511 149.35902 7452 ft 194 kts 160°
2026-04-25 08:57 -35.69784 149.36457 7452 ft 194 kts 160°
2026-04-25 08:57 -35.71058 149.37012 7452 ft 194 kts 160°
2026-04-25 08:57 -35.72333 149.37569 7452 ft 194 kts 160°
2026-04-25 08:57 -35.73608 149.38125 7451 ft 194 kts 160°
2026-04-25 08:58 -35.74881 149.38682 7452 ft 194 kts 160°
2026-04-25 08:58 -35.76382 149.39360 15844 ft 149 kts 160°
2026-04-25 08:58 -35.77341 149.39813 15747 ft 147 kts 160°
2026-04-25 08:59 -35.78293 149.40261 15652 ft 153 kts 160°
2026-04-25 08:59 -35.79438 149.40822 15687 ft 197 kts 159°
2026-04-25 08:59 -35.80801 149.41487 15815 ft 220 kts 159°
2026-04-25 08:59 -35.82232 149.42184 15957 ft 226 kts 159°
2026-04-25 09:00 -35.83699 149.42895 16088 ft 227 kts 159°
2026-04-25 09:00 -35.85178 149.43610 16213 ft 228 kts 159°
2026-04-25 09:00 -35.86657 149.44323 16337 ft 229 kts 159°
2026-04-25 09:00 -35.88120 149.45026 16705 ft 224 kts 159°
2026-04-25 09:01 -35.89561 149.45715 17079 ft 219 kts 160°
2026-04-25 09:01 -35.90945 149.46364 17453 ft 215 kts 160°
2026-04-25 09:01 -35.95088 149.48217 18613 ft 208 kts 162°
2026-04-25 09:01 -36.00517 149.50384 19972 ft 205 kts 164°
2026-04-25 09:02 -36.05753 149.52208 18864 ft 153 kts 166°
2026-04-25 09:02 -36.09587 149.53548 17131 ft 136 kts 165°
2026-04-25 09:02 -36.14027 149.55269 15682 ft 207 kts 164°
2026-04-25 09:02 -36.19052 149.57109 14430 ft 159 kts 165°
2026-04-25 09:03 -36.23030 149.58697 15355 ft 189 kts 163°
2026-04-25 09:03 -36.28392 149.60613 16399 ft 194 kts 166°
2026-04-25 09:03 -36.33528 149.62178 17391 ft 186 kts 168°
2026-04-25 09:03 -36.38625 149.63526 18442 ft 189 kts 170°
2026-04-25 09:04 -36.43689 149.64665 19377 ft 184 kts 172°
2026-04-25 09:04 -36.48721 149.65383 16631 ft 176 kts 181°
2026-04-25 09:04 -36.53385 149.65019 12192 ft 163 kts 188°
2026-04-25 09:04 -36.55010 149.64896 10746 ft 156 kts 184°
2026-04-25 09:05 -36.56078 149.64837 9685 ft 155 kts 176°
2026-04-25 09:05 -36.61349 149.65209 7585 ft 154 kts 181°
2026-04-25 09:05 -36.69664 149.65281 5093 ft 144 kts 177°
2026-04-25 09:05 -36.73364 149.65500 4332 ft 137 kts 176°
2026-04-25 09:06 -36.74319 149.65615 4237 ft 154 kts 172°
2026-04-25 09:06 -36.75509 149.65894 4503 ft 189 kts 168°
2026-04-25 09:06 -36.77205 149.66324 4837 ft 141 kts 167°
2026-04-25 09:06 -36.81044 149.67314 4502 ft 139 kts 166°
2026-04-25 09:07 -36.84712 149.68820 3973 ft 142 kts 143°
2026-04-25 09:07 -36.86493 149.71046 3618 ft 139 kts 133°
2026-04-25 09:07 -36.87917 149.72553 3493 ft 133 kts 149°
2026-04-25 09:07 -36.89797 149.73994 3339 ft 136 kts 148°
2026-04-25 09:08 -36.90564 149.74642 3378 ft 130 kts 144°
2026-04-25 09:08 -36.91304 149.75322 3287 ft 137 kts 141°
2026-04-25 09:08 -36.92074 149.76128 3105 ft 166 kts 136°
2026-04-25 09:08 -36.92946 149.77095 2833 ft 160 kts 137°
2026-04-25 09:09 -36.93723 149.78023 2768 ft 145 kts 128°
2026-04-25 09:09 -36.94179 149.79057 2634 ft 122 kts 112°
2026-04-25 09:09 -36.94488 149.80044 2284 ft 131 kts 105°
2026-04-25 09:09 -36.94687 149.81209 2014 ft 139 kts 98°
2026-04-25 09:10 -36.94822 149.82392 1885 ft 134 kts 95°
2026-04-25 09:10 -36.94858 149.83543 1613 ft 136 kts 86°
2026-04-25 09:10 -36.94771 149.84635 1228 ft 111 kts 83°
2026-04-25 09:10 -36.94657 149.85524 883 ft 102 kts 76°
2026-04-25 09:11 -36.93990 149.87229 628 ft 114 kts 56°
2026-04-25 09:11 -36.93418 149.87872 576 ft 110 kts 34°
2026-04-25 09:11 -36.92823 149.88352 471 ft 100 kts 33°
2026-04-25 09:12 -36.92240 149.88853 336 ft 102 kts 35°
2026-04-25 09:12 -36.91711 149.89294 133 ft 87 kts 34°
2026-04-25 09:12 -36.91207 149.89720 28 ft 79 kts 33°
2026-04-25 09:12 -36.90809 149.90043 10 ft 59 kts 33°
2026-04-25 09:13 -36.90606 149.90244 13 ft 19 kts 34°
2026-04-25 09:13 -36.90469 149.90356 12 ft 28 kts 33°
2026-04-25 09:13 -36.90428 149.90363 12 ft 18 kts 198°
2026-04-25 09:13 -36.90598 149.90242 13 ft 29 kts 212°
2026-04-25 09:14 -36.90724 149.90142 10 ft 29 kts 212°
2026-04-25 09:14 -36.90857 149.90060 11 ft 5 kts 163°
2026-04-25 09:14 -36.90910 149.90138 11 ft 5 kts 78°
2026-04-25 09:14 -36.90892 149.90183 11 ft 6 kts 75°
2026-04-25 09:15 -36.90907 149.90193 11 ft 0 kts 238°